Time;durP1;ratioP1;P1;durP2;ratioP2;P2;SDS_P1;SDS_P2;PMS_P1;PMS_P2;Temp;Humidity;BMP_temperature;BMP_pressure;BME280_temperature;BME280_humidity;BME280_pressure;Samples;Min_cycle;Max_cycle;Signal;HPM_P1;HPM_P2
2024/01/17 00:00:09;;;;;;;0.50;0.50;;;;;;;;;;4972343;28;20657;-85
2024/01/17 00:02:35;;;;;;;0.50;0.50;;;;;;;;;;4955602;28;20049;-87
2024/01/17 00:05:01;;;;;;;0.57;0.57;;;;;;;;;;4971786;28;20640;-87
2024/01/17 00:07:27;;;;;;;0.63;0.63;;;;;;;;;;4956806;28;20409;-87
2024/01/17 00:09:53;;;;;;;0.50;0.50;;;;;;;;;;4991291;28;20045;-87
2024/01/17 00:12:19;;;;;;;0.47;0.47;;;;;;;;;;4970380;28;20030;-87
2024/01/17 00:14:45;;;;;;;0.60;0.60;;;;;;;;;;4971792;28;20045;-87
2024/01/17 00:17:12;;;;;;;0.50;0.50;;;;;;;;;;4955938;28;20043;-87
2024/01/17 00:19:37;;;;;;;0.50;0.50;;;;;;;;;;4971635;28;20461;-87
2024/01/17 00:22:04;;;;;;;0.50;0.50;;;;;;;;;;4971407;28;20054;-86
2024/01/17 00:24:30;;;;;;;0.50;0.50;;;;;;;;;;4955266;28;20042;-87
2024/01/17 00:26:56;;;;;;;0.50;0.50;;;;;;;;;;4971604;28;20049;-87
2024/01/17 00:29:22;;;;;;;0.50;0.50;;;;;;;;;;4955367;28;20066;-86
2024/01/17 00:31:48;;;;;;;0.60;0.60;;;;;;;;;;4962524;28;20105;-86
2024/01/17 00:34:14;;;;;;;0.60;0.60;;;;;;;;;;4959929;28;20042;-86
2024/01/17 00:36:40;;;;;;;0.50;0.50;;;;;;;;;;4961461;28;20042;-87
2024/01/17 00:39:06;;;;;;;0.50;0.50;;;;;;;;;;4959685;28;20043;-87
2024/01/17 00:41:31;;;;;;;0.57;0.57;;;;;;;;;;4955599;28;20058;-87
2024/01/17 00:43:57;;;;;;;0.50;0.50;;;;;;;;;;4955278;28;20193;-87
2024/01/17 00:46:23;;;;;;;0.50;0.50;;;;;;;;;;4971621;28;20054;-87
2024/01/17 00:48:49;;;;;;;0.50;0.50;;;;;;;;;;4971250;28;20100;-86
2024/01/17 00:51:25;;;;;;;0.52;0.52;;;;;;;;;;4961036;28;20045;-86
2024/01/17 00:53:52;;;;;;;0.50;0.50;;;;;;;;;;4958330;28;20042;-87
2024/01/17 00:56:18;;;;;;;0.50;0.50;;;;;;;;;;4971260;28;20042;-86
2024/01/17 00:58:44;;;;;;;0.50;0.50;;;;;;;;;;4958807;28;20046;-87
2024/01/17 01:01:10;;;;;;;0.50;0.50;;;;;;;;;;4959000;28;20498;-86
2024/01/17 01:03:36;;;;;;;0.65;0.65;;;;;;;;;;4958899;28;20417;-86
2024/01/17 01:06:02;;;;;;;0.50;0.50;;;;;;;;;;4959401;28;20513;-86
2024/01/17 01:08:28;;;;;;;0.60;0.60;;;;;;;;;;4959013;28;20138;-87
2024/01/17 01:10:54;;;;;;;0.50;0.50;;;;;;;;;;4959182;28;20125;-87
2024/01/17 01:13:20;;;;;;;0.52;0.52;;;;;;;;;;4958091;28;20035;-86
2024/01/17 01:15:46;;;;;;;0.50;0.50;;;;;;;;;;4958775;28;20070;-86
2024/01/17 01:18:12;;;;;;;0.50;0.50;;;;;;;;;;4958864;28;20093;-87
2024/01/17 01:20:38;;;;;;;0.50;0.50;;;;;;;;;;4958722;28;20088;-87
2024/01/17 01:23:04;;;;;;;0.50;0.50;;;;;;;;;;4958600;28;20038;-87
2024/01/17 01:25:30;;;;;;;0.50;0.50;;;;;;;;;;4974763;28;20042;-87
2024/01/17 01:27:56;;;;;;;0.47;0.47;;;;;;;;;;4974677;28;20591;-87
2024/01/17 01:30:22;;;;;;;0.50;0.50;;;;;;;;;;4958510;28;20122;-87
2024/01/17 01:32:48;;;;;;;0.50;0.50;;;;;;;;;;4957819;28;20041;-87
2024/01/17 01:35:14;;;;;;;1.08;1.05;;;;;;;;;;4958834;28;20643;-87
2024/01/17 01:37:40;;;;;;;0.50;0.50;;;;;;;;;;4974625;28;20043;-87
2024/01/17 01:40:10;;;;;;;0.50;0.50;;;;;;;;;;4958417;28;20042;-87
2024/01/17 01:42:36;;;;;;;0.60;0.60;;;;;;;;;;4957994;28;20519;-87
2024/01/17 01:45:02;;;;;;;0.50;0.50;;;;;;;;;;4974188;28;20489;-87
2024/01/17 01:47:28;;;;;;;0.60;0.60;;;;;;;;;;4974354;28;20054;-87
2024/01/17 01:49:55;;;;;;;0.50;0.50;;;;;;;;;;4958533;28;20066;-87
2024/01/17 01:52:22;;;;;;;0.60;0.60;;;;;;;;;;4958236;28;20043;-86
2024/01/17 01:54:48;;;;;;;1.83;1.73;;;;;;;;;;4958205;28;20039;-87
2024/01/17 01:57:16;;;;;;;0.50;0.50;;;;;;;;;;4958333;28;20051;-87
2024/01/17 01:59:42;;;;;;;0.50;0.50;;;;;;;;;;4958193;28;20118;-86
2024/01/17 02:02:08;;;;;;;0.60;0.60;;;;;;;;;;4957956;28;20457;-86
2024/01/17 02:04:34;;;;;;;0.60;0.60;;;;;;;;;;4957806;28;20050;-87
2024/01/17 02:07:01;;;;;;;0.50;0.50;;;;;;;;;;4957827;28;20093;-87
2024/01/17 02:09:27;;;;;;;0.50;0.50;;;;;;;;;;4973063;28;20035;-86
2024/01/17 02:11:54;;;;;;;0.50;0.50;;;;;;;;;;4957774;28;20046;-87
2024/01/17 02:14:20;;;;;;;0.50;0.50;;;;;;;;;;4945219;28;20051;-87
2024/01/17 02:16:46;;;;;;;0.50;0.50;;;;;;;;;;4938669;29;20057;-87
2024/01/17 02:19:16;;;;;;;0.50;0.50;;;;;;;;;;4938809;29;20582;-87
2024/01/17 02:21:42;;;;;;;0.50;0.50;;;;;;;;;;4938814;29;20130;-87
2024/01/17 02:24:15;;;;;;;0.50;0.50;;;;;;;;;;4965468;28;20066;-87
2024/01/17 02:26:41;;;;;;;0.50;0.50;;;;;;;;;;4957439;28;20054;-87
2024/01/17 02:29:07;;;;;;;0.50;0.50;;;;;;;;;;4957726;28;20559;-87
2024/01/17 02:31:33;;;;;;;0.50;0.50;;;;;;;;;;4957446;28;20039;-87
2024/01/17 02:33:59;;;;;;;0.60;0.60;;;;;;;;;;4957222;28;20182;-87
2024/01/17 02:36:25;;;;;;;0.50;0.50;;;;;;;;;;4957519;28;20150;-87
2024/01/17 02:38:51;;;;;;;0.60;0.60;;;;;;;;;;4973471;28;20541;-86
2024/01/17 02:41:17;;;;;;;0.98;0.98;;;;;;;;;;4973338;28;20501;-87
2024/01/17 02:43:43;;;;;;;0.60;0.60;;;;;;;;;;4973273;28;20039;-86
2024/01/17 02:46:09;;;;;;;0.60;0.60;;;;;;;;;;4957273;28;20046;-87
2024/01/17 02:48:35;;;;;;;0.60;0.60;;;;;;;;;;4957160;28;20043;-86
2024/01/17 02:51:01;;;;;;;0.50;0.50;;;;;;;;;;4957333;28;20082;-87
2024/01/17 02:53:27;;;;;;;0.50;0.50;;;;;;;;;;4956448;28;20031;-87
2024/01/17 02:55:53;;;;;;;0.50;0.50;;;;;;;;;;4956841;28;20441;-86
2024/01/17 02:58:19;;;;;;;0.60;0.60;;;;;;;;;;4957302;28;20121;-87
2024/01/17 03:00:45;;;;;;;1.70;1.10;;;;;;;;;;4956948;28;20046;-87
2024/01/17 03:03:11;;;;;;;0.50;0.50;;;;;;;;;;4956740;28;20049;-87
2024/01/17 03:05:38;;;;;;;0.50;0.50;;;;;;;;;;4956701;28;20103;-87
2024/01/17 03:08:07;;;;;;;0.60;0.60;;;;;;;;;;4956604;28;20051;-87
2024/01/17 03:10:33;;;;;;;0.50;0.50;;;;;;;;;;4956409;28;20038;-87
2024/01/17 03:12:59;;;;;;;0.60;0.60;;;;;;;;;;4956619;28;20046;-87
2024/01/17 03:15:25;;;;;;;0.60;0.60;;;;;;;;;;4972900;28;20404;-87
2024/01/17 03:17:51;;;;;;;0.50;0.50;;;;;;;;;;4956907;28;20050;-87
2024/01/17 03:20:17;;;;;;;0.60;0.60;;;;;;;;;;4956251;28;20049;-86
2024/01/17 03:22:44;;;;;;;0.50;0.50;;;;;;;;;;4955806;28;20042;-87
2024/01/17 03:25:10;;;;;;;0.55;0.55;;;;;;;;;;4972533;28;20046;-87
2024/01/17 03:27:36;;;;;;;0.50;0.50;;;;;;;;;;4956550;28;20046;-87
2024/01/17 03:30:07;;;;;;;0.60;0.60;;;;;;;;;;4972548;28;20043;-87
2024/01/17 03:32:33;;;;;;;0.55;0.55;;;;;;;;;;4972076;28;21926;-87
2024/01/17 03:35:00;;;;;;;0.70;0.70;;;;;;;;;;4956314;28;20035;-86
2024/01/17 03:37:26;;;;;;;0.60;0.60;;;;;;;;;;4972640;28;20039;-87
2024/01/17 03:39:52;;;;;;;0.60;0.60;;;;;;;;;;4956374;28;20047;-87
2024/01/17 03:42:17;;;;;;;0.60;0.60;;;;;;;;;;4955856;28;20043;-86
2024/01/17 03:44:44;;;;;;;0.60;0.60;;;;;;;;;;4956479;28;20477;-87
2024/01/17 03:47:10;;;;;;;0.50;0.50;;;;;;;;;;4956193;28;20085;-87
2024/01/17 03:49:36;;;;;;;0.60;0.60;;;;;;;;;;4956161;28;20126;-87
2024/01/17 03:52:02;;;;;;;0.50;0.50;;;;;;;;;;4955732;28;20121;-86
2024/01/17 03:54:28;;;;;;;0.60;0.60;;;;;;;;;;4956043;28;20400;-87
2024/01/17 03:56:54;;;;;;;0.57;0.57;;;;;;;;;;4956255;28;20047;-87
2024/01/17 03:59:20;;;;;;;0.60;0.60;;;;;;;;;;4956091;28;20051;-87
2024/01/17 04:01:47;;;;;;;0.60;0.60;;;;;;;;;;4955895;28;20638;-86
2024/01/17 04:04:13;;;;;;;0.50;0.50;;;;;;;;;;4955484;28;20113;-87
2024/01/17 04:06:40;;;;;;;0.50;0.50;;;;;;;;;;4956010;28;20497;-87
2024/01/17 04:09:06;;;;;;;0.50;0.50;;;;;;;;;;4955658;28;20043;-87
2024/01/17 04:11:32;;;;;;;0.50;0.50;;;;;;;;;;4971631;28;20054;-87
2024/01/17 04:13:58;;;;;;;0.60;0.60;;;;;;;;;;4971609;28;20533;-86
2024/01/17 04:16:24;;;;;;;0.60;0.60;;;;;;;;;;4955665;28;20092;-86
2024/01/17 04:18:50;;;;;;;0.55;0.55;;;;;;;;;;4955963;28;20050;-86
2024/01/17 04:21:17;;;;;;;0.50;0.50;;;;;;;;;;4955522;28;20051;-86
2024/01/17 04:23:44;;;;;;;0.50;0.50;;;;;;;;;;4955343;28;20103;-87
2024/01/17 04:26:17;;;;;;;0.50;0.50;;;;;;;;;;4955814;28;20054;-87
2024/01/17 04:28:43;;;;;;;0.60;0.60;;;;;;;;;;4955278;28;20054;-86
2024/01/17 04:31:09;;;;;;;0.90;0.90;;;;;;;;;;4970993;28;20042;-87
2024/01/17 04:33:35;;;;;;;0.50;0.50;;;;;;;;;;4955182;28;20070;-87
2024/01/17 04:36:01;;;;;;;0.98;0.98;;;;;;;;;;4955839;28;20054;-87
2024/01/17 04:38:27;;;;;;;0.50;0.50;;;;;;;;;;4971583;28;20125;-86
2024/01/17 04:40:53;;;;;;;0.52;0.52;;;;;;;;;;4955362;28;20138;-87
2024/01/17 04:43:19;;;;;;;0.60;0.60;;;;;;;;;;4955345;28;20042;-87
2024/01/17 04:45:48;;;;;;;0.50;0.50;;;;;;;;;;4955670;28;20513;-87
2024/01/17 04:48:14;;;;;;;0.50;0.50;;;;;;;;;;4955022;28;20062;-87
2024/01/17 04:50:39;;;;;;;0.50;0.50;;;;;;;;;;4954984;28;20050;-87
2024/01/17 04:53:05;;;;;;;0.50;0.50;;;;;;;;;;4955418;28;20053;-87
2024/01/17 04:55:33;;;;;;;0.50;0.50;;;;;;;;;;4955359;28;20038;-87
2024/01/17 04:57:59;;;;;;;0.60;0.60;;;;;;;;;;4955343;28;20456;-88
2024/01/17 05:00:25;;;;;;;0.60;0.60;;;;;;;;;;4971251;28;20047;-87
2024/01/17 05:02:51;;;;;;;0.50;0.50;;;;;;;;;;4953428;28;20053;-87
2024/01/17 05:05:17;;;;;;;0.50;0.50;;;;;;;;;;4961883;28;20045;-87
2024/01/17 05:07:43;;;;;;;0.52;0.52;;;;;;;;;;4950200;28;20054;-87
2024/01/17 05:10:09;;;;;;;0.60;0.60;;;;;;;;;;4947015;28;20121;-87
2024/01/17 05:12:35;;;;;;;0.50;0.50;;;;;;;;;;4944298;28;20086;-87
2024/01/17 05:15:01;;;;;;;0.50;0.50;;;;;;;;;;4947390;28;20497;-87
2024/01/17 05:17:29;;;;;;;0.50;0.50;;;;;;;;;;4944753;28;20062;-87
2024/01/17 05:19:54;;;;;;;0.52;0.52;;;;;;;;;;4942912;28;20054;-87
2024/01/17 05:22:20;;;;;;;0.80;0.80;;;;;;;;;;4950244;28;20039;-87
2024/01/17 05:24:46;;;;;;;0.50;0.50;;;;;;;;;;4947139;29;20043;-87
2024/01/17 05:27:12;;;;;;;0.60;0.60;;;;;;;;;;4943484;29;20046;-87
2024/01/17 05:29:43;;;;;;;0.60;0.60;;;;;;;;;;4945082;28;20450;-87
2024/01/17 05:32:09;;;;;;;0.60;0.60;;;;;;;;;;4952273;28;20385;-86
2024/01/17 05:34:36;;;;;;;0.68;0.68;;;;;;;;;;4962968;28;20039;-87
2024/01/17 05:37:03;;;;;;;0.52;0.52;;;;;;;;;;4976693;28;20118;-87
2024/01/17 05:39:29;;;;;;;0.60;0.60;;;;;;;;;;4965359;28;20050;-86
2024/01/17 05:41:55;;;;;;;0.57;0.57;;;;;;;;;;4966881;28;20061;-87
2024/01/17 05:44:21;;;;;;;1.95;1.85;;;;;;;;;;4969949;28;20593;-87
2024/01/17 05:46:47;;;;;;;0.70;0.70;;;;;;;;;;4974614;28;20051;-86
2024/01/17 05:49:13;;;;;;;0.60;0.60;;;;;;;;;;4962800;28;20182;-87
2024/01/17 05:51:39;;;;;;;0.50;0.50;;;;;;;;;;4959003;28;20066;-87
2024/01/17 05:54:05;;;;;;;0.60;0.60;;;;;;;;;;4947956;28;20102;-86
2024/01/17 05:56:31;;;;;;;0.50;0.50;;;;;;;;;;4953734;28;20504;-87
2024/01/17 05:58:57;;;;;;;0.40;0.40;;;;;;;;;;4966202;28;20043;-86
2024/01/17 06:01:23;;;;;;;0.50;0.50;;;;;;;;;;4951652;28;20046;-87
2024/01/17 06:03:49;;;;;;;0.50;0.50;;;;;;;;;;4951642;28;20129;-87
2024/01/17 06:06:15;;;;;;;1.58;1.35;;;;;;;;;;4952675;28;20104;-86
2024/01/17 06:08:42;;;;;;;0.95;0.95;;;;;;;;;;4950237;28;20559;-87
2024/01/17 06:11:08;;;;;;;0.50;0.50;;;;;;;;;;4950708;28;20624;-87
2024/01/17 06:13:34;;;;;;;0.50;0.50;;;;;;;;;;4962431;28;20679;-87
2024/01/17 06:16:00;;;;;;;0.50;0.50;;;;;;;;;;4969498;28;20130;-87
2024/01/17 06:18:26;;;;;;;0.40;0.40;;;;;;;;;;4952677;28;20038;-86
2024/01/17 06:20:53;;;;;;;0.82;0.82;;;;;;;;;;4950094;28;20544;-87
2024/01/17 06:23:19;;;;;;;0.50;0.50;;;;;;;;;;4943354;28;20414;-87
2024/01/17 06:25:45;;;;;;;0.60;0.60;;;;;;;;;;4955153;28;20039;-87
2024/01/17 06:28:11;;;;;;;0.50;0.50;;;;;;;;;;4952375;28;20049;-87
2024/01/17 06:30:38;;;;;;;0.60;0.60;;;;;;;;;;4949160;28;20098;-87
2024/01/17 06:33:04;;;;;;;0.50;0.50;;;;;;;;;;4956054;28;20050;-87
2024/01/17 06:35:30;;;;;;;0.50;0.50;;;;;;;;;;4964978;28;20089;-87
2024/01/17 06:37:56;;;;;;;0.50;0.50;;;;;;;;;;4959993;28;20416;-87
2024/01/17 06:40:23;;;;;;;0.50;0.50;;;;;;;;;;4959329;28;20126;-87
2024/01/17 06:42:49;;;;;;;0.60;0.60;;;;;;;;;;4960330;28;20124;-87
2024/01/17 06:45:15;;;;;;;0.52;0.52;;;;;;;;;;4964827;28;20130;-86
2024/01/17 06:47:40;;;;;;;0.50;0.50;;;;;;;;;;4964232;28;20050;-87
2024/01/17 06:50:07;;;;;;;0.60;0.60;;;;;;;;;;4964402;28;20045;-87
2024/01/17 06:52:33;;;;;;;0.60;0.60;;;;;;;;;;4954982;28;20067;-87
2024/01/17 06:54:59;;;;;;;0.60;0.60;;;;;;;;;;4946463;28;20057;-87
2024/01/17 06:57:25;;;;;;;0.50;0.50;;;;;;;;;;4943942;28;20051;-87
2024/01/17 06:59:51;;;;;;;0.60;0.60;;;;;;;;;;4974121;28;20046;-87
2024/01/17 07:02:17;;;;;;;0.60;0.60;;;;;;;;;;4973081;28;20046;-87
2024/01/17 07:04:43;;;;;;;0.60;0.60;;;;;;;;;;4963289;28;20125;-87
2024/01/17 07:07:09;;;;;;;0.60;0.60;;;;;;;;;;4963164;28;20536;-86
2024/01/17 07:09:35;;;;;;;0.60;0.60;;;;;;;;;;4970149;28;20034;-87
2024/01/17 07:12:02;;;;;;;0.60;0.60;;;;;;;;;;4950307;28;20035;-87
2024/01/17 07:14:28;;;;;;;0.60;0.60;;;;;;;;;;4954955;28;20165;-87
2024/01/17 07:16:54;;;;;;;0.45;0.45;;;;;;;;;;4958070;28;20512;-87
2024/01/17 07:19:20;;;;;;;0.52;0.52;;;;;;;;;;4968219;28;20058;-87
2024/01/17 07:21:46;;;;;;;0.50;0.50;;;;;;;;;;4964012;28;20181;-87
2024/01/17 07:24:12;;;;;;;0.50;0.50;;;;;;;;;;4944702;28;20035;-87
2024/01/17 07:26:38;;;;;;;0.60;0.60;;;;;;;;;;4943864;28;20511;-87
2024/01/17 07:29:05;;;;;;;0.60;0.60;;;;;;;;;;4948449;28;20428;-87
2024/01/17 07:31:31;;;;;;;0.60;0.60;;;;;;;;;;4960632;28;20540;-87
2024/01/17 07:33:57;;;;;;;0.50;0.50;;;;;;;;;;4946092;28;20043;-87
2024/01/17 07:36:24;;;;;;;0.55;0.55;;;;;;;;;;4949122;28;20070;-87
2024/01/17 07:38:50;;;;;;;0.60;0.60;;;;;;;;;;4949460;28;20074;-89
2024/01/17 07:41:15;;;;;;;0.50;0.50;;;;;;;;;;4946385;28;20129;-89
2024/01/17 07:43:41;;;;;;;0.60;0.60;;;;;;;;;;4948896;28;20074;-88
2024/01/17 07:46:07;;;;;;;0.60;0.60;;;;;;;;;;4960718;28;20043;-87
2024/01/17 07:48:33;;;;;;;0.60;0.60;;;;;;;;;;4943282;28;20049;-87
2024/01/17 07:50:59;;;;;;;0.60;0.60;;;;;;;;;;4956631;28;20039;-87
2024/01/17 07:53:26;;;;;;;0.50;0.50;;;;;;;;;;4943697;28;20038;-87
2024/01/17 07:55:53;;;;;;;0.50;0.50;;;;;;;;;;4946197;28;20053;-86
2024/01/17 07:58:19;;;;;;;0.52;0.52;;;;;;;;;;4943767;28;20035;-86
2024/01/17 08:00:46;;;;;;;0.50;0.50;;;;;;;;;;4947667;28;20049;-87
2024/01/17 08:03:12;;;;;;;0.50;0.50;;;;;;;;;;4947774;28;20035;-88
2024/01/17 08:05:38;;;;;;;0.60;0.60;;;;;;;;;;4947752;28;20102;-88
2024/01/17 08:08:04;;;;;;;0.60;0.60;;;;;;;;;;4944675;28;20051;-88
2024/01/17 08:10:30;;;;;;;0.50;0.50;;;;;;;;;;4951030;28;20042;-86
2024/01/17 08:12:56;;;;;;;0.50;0.50;;;;;;;;;;4963460;28;20042;-87
2024/01/17 08:15:22;;;;;;;0.50;0.50;;;;;;;;;;4965386;28;20034;-86
2024/01/17 08:17:50;;;;;;;0.50;0.50;;;;;;;;;;4945387;28;20529;-85
2024/01/17 08:20:16;;;;;;;0.60;0.60;;;;;;;;;;4948723;28;20497;-86
2024/01/17 08:22:43;;;;;;;0.50;0.50;;;;;;;;;;4944538;28;20051;-86
2024/01/17 08:25:09;;;;;;;0.57;0.57;;;;;;;;;;4950616;28;20564;-85
2024/01/17 08:27:38;;;;;;;0.60;0.60;;;;;;;;;;4963957;28;20051;-86
2024/01/17 08:30:05;;;;;;;0.60;0.60;;;;;;;;;;4943401;28;20046;-87
2024/01/17 08:32:31;;;;;;;0.50;0.50;;;;;;;;;;4950737;28;20042;-86
2024/01/17 08:34:57;;;;;;;0.60;0.60;;;;;;;;;;4962788;28;20102;-85
2024/01/17 08:37:23;;;;;;;0.50;0.50;;;;;;;;;;4952976;28;20034;-86
2024/01/17 08:39:49;;;;;;;0.60;0.60;;;;;;;;;;4947332;28;20074;-85
2024/01/17 08:42:15;;;;;;;0.60;0.60;;;;;;;;;;4945610;28;20066;-85
2024/01/17 08:44:42;;;;;;;0.50;0.50;;;;;;;;;;4961350;28;20041;-88
2024/01/17 08:47:09;;;;;;;0.60;0.60;;;;;;;;;;4946748;28;20513;-85
2024/01/17 08:49:39;;;;;;;0.60;0.60;;;;;;;;;;4943632;28;20043;-85
2024/01/17 08:52:05;;;;;;;0.60;0.60;;;;;;;;;;4943326;28;20390;-85
2024/01/17 08:54:31;;;;;;;0.60;0.60;;;;;;;;;;4947441;28;20035;-85
2024/01/17 08:56:57;;;;;;;0.60;0.60;;;;;;;;;;4947578;28;20383;-85
2024/01/17 08:59:23;;;;;;;0.70;0.70;;;;;;;;;;4962235;28;20070;-85
2024/01/17 09:01:52;;;;;;;0.60;0.60;;;;;;;;;;4944895;28;20509;-85
2024/01/17 09:04:18;;;;;;;0.50;0.50;;;;;;;;;;4961140;28;20047;-84
2024/01/17 09:06:44;;;;;;;0.60;0.60;;;;;;;;;;4945459;28;20137;-84
2024/01/17 09:09:12;;;;;;;0.80;0.80;;;;;;;;;;4944306;28;20039;-85
2024/01/17 09:11:39;;;;;;;0.60;0.60;;;;;;;;;;4966499;28;20047;-85
2024/01/17 09:14:05;;;;;;;0.52;0.52;;;;;;;;;;4943351;28;20102;-85
2024/01/17 09:16:32;;;;;;;0.50;0.50;;;;;;;;;;4946687;28;20035;-85
2024/01/17 09:18:58;;;;;;;0.60;0.60;;;;;;;;;;4947835;28;20050;-84
2024/01/17 09:21:24;;;;;;;0.57;0.57;;;;;;;;;;4952112;28;20410;-86
2024/01/17 09:23:50;;;;;;;0.47;0.47;;;;;;;;;;4964481;28;20035;-87
2024/01/17 09:26:15;;;;;;;0.50;0.50;;;;;;;;;;4965095;28;20063;-86
2024/01/17 09:28:42;;;;;;;0.60;0.60;;;;;;;;;;4950467;28;20059;-84
2024/01/17 09:31:08;;;;;;;0.50;0.50;;;;;;;;;;4970016;28;20065;-88
2024/01/17 09:33:35;;;;;;;0.50;0.50;;;;;;;;;;4969066;28;20157;-89
2024/01/17 09:36:01;;;;;;;0.50;0.50;;;;;;;;;;4947389;28;20042;-86
2024/01/17 09:38:27;;;;;;;0.50;0.50;;;;;;;;;;4952226;28;20043;-86
2024/01/17 09:40:53;;;;;;;0.60;0.60;;;;;;;;;;4951810;28;20130;-86
2024/01/17 09:43:19;;;;;;;0.50;0.50;;;;;;;;;;4966078;28;20117;-88
2024/01/17 09:45:45;;;;;;;0.50;0.50;;;;;;;;;;4964844;28;20050;-87
2024/01/17 09:48:12;;;;;;;0.50;0.50;;;;;;;;;;4947409;28;20122;-87
2024/01/17 09:50:38;;;;;;;0.50;0.50;;;;;;;;;;4950765;28;20105;-86
2024/01/17 09:53:08;;;;;;;0.50;0.50;;;;;;;;;;4946548;28;20042;-86
2024/01/17 09:55:37;;;;;;;0.50;0.50;;;;;;;;;;4950778;28;20106;-87
2024/01/17 09:58:05;;;;;;;0.60;0.60;;;;;;;;;;4946988;28;20050;-86
2024/01/17 10:00:32;;;;;;;0.50;0.50;;;;;;;;;;4950492;28;20045;-86
2024/01/17 10:02:58;;;;;;;0.50;0.50;;;;;;;;;;4962182;28;20489;-85
2024/01/17 10:05:26;;;;;;;0.70;0.70;;;;;;;;;;4949849;28;20515;-86
2024/01/17 10:07:54;;;;;;;0.50;0.50;;;;;;;;;;4946287;28;20414;-86
2024/01/17 10:10:21;;;;;;;0.50;0.50;;;;;;;;;;4964618;28;20038;-86
2024/01/17 10:12:47;;;;;;;0.60;0.60;;;;;;;;;;4947069;28;20039;-84
2024/01/17 10:15:14;;;;;;;0.50;0.50;;;;;;;;;;4949864;28;20043;-85
2024/01/17 10:17:40;;;;;;;0.60;0.60;;;;;;;;;;4963878;28;20043;-88
2024/01/17 10:20:08;;;;;;;0.50;0.50;;;;;;;;;;4951682;28;20396;-87
2024/01/17 10:22:34;;;;;;;0.55;0.55;;;;;;;;;;4966349;28;20042;-87
2024/01/17 10:25:03;;;;;;;0.50;0.50;;;;;;;;;;4950611;28;20047;-88
2024/01/17 10:27:29;;;;;;;0.50;0.50;;;;;;;;;;4943045;29;20521;-90
2024/01/17 10:29:55;;;;;;;0.60;0.60;;;;;;;;;;4941320;28;20497;-86
2024/01/17 10:32:21;;;;;;;0.50;0.50;;;;;;;;;;4964778;28;20035;-86
2024/01/17 10:34:47;;;;;;;0.60;0.60;;;;;;;;;;4965136;28;20405;-85
2024/01/17 10:37:14;;;;;;;0.50;0.50;;;;;;;;;;4947725;28;20038;-87
2024/01/17 10:39:40;;;;;;;0.50;0.50;;;;;;;;;;4949699;28;20497;-89
2024/01/17 10:42:08;;;;;;;0.60;0.60;;;;;;;;;;4952481;29;20201;-91
2024/01/17 10:44:33;;;;;;;0.50;0.50;;;;;;;;;;4951141;28;20093;-86
2024/01/17 10:47:00;;;;;;;0.52;0.52;;;;;;;;;;4965193;28;20058;-85
2024/01/17 10:49:26;;;;;;;0.60;0.60;;;;;;;;;;4948675;28;20042;-85
2024/01/17 10:52:03;;;;;;;0.55;0.55;;;;;;;;;;4948514;28;20521;-84
2024/01/17 10:54:34;;;;;;;0.60;0.60;;;;;;;;;;4965248;28;20042;-85
2024/01/17 10:57:05;;;;;;;1.50;1.40;;;;;;;;;;4948410;28;20046;-85
2024/01/17 10:59:33;;;;;;;1.23;1.13;;;;;;;;;;4948527;28;20076;-85
2024/01/17 11:01:59;;;;;;;0.60;0.60;;;;;;;;;;4948792;28;20046;-88
2024/01/17 11:04:35;;;;;;;0.60;0.60;;;;;;;;;;4957741;28;20458;-87
2024/01/17 11:07:01;;;;;;;0.50;0.50;;;;;;;;;;4941515;28;20126;-87
2024/01/17 11:09:27;;;;;;;0.50;0.50;;;;;;;;;;4945343;29;20098;-87
2024/01/17 11:11:55;;;;;;;0.68;0.68;;;;;;;;;;4945257;29;20131;-87
2024/01/17 11:14:22;;;;;;;0.50;0.50;;;;;;;;;;4948537;28;20039;-87
2024/01/17 11:16:49;;;;;;;0.50;0.50;;;;;;;;;;4948865;28;20057;-87
2024/01/17 11:19:17;;;;;;;0.60;0.60;;;;;;;;;;4946336;28;20078;-87
2024/01/17 11:21:43;;;;;;;0.47;0.47;;;;;;;;;;4947248;28;20061;-86
2024/01/17 11:24:28;;;;;;;0.50;0.50;;;;;;;;;;4952357;28;20051;-87
2024/01/17 11:27:05;;;;;;;0.50;0.50;;;;;;;;;;4945200;29;20553;-87
2024/01/17 11:29:50;;;;;;;0.50;0.50;;;;;;;;;;4967919;28;20350;-86
2024/01/17 11:32:22;;;;;;;0.60;0.60;;;;;;;;;;4946945;28;20043;-87
2024/01/17 11:34:49;;;;;;;0.73;0.73;;;;;;;;;;4968218;28;20034;-87
2024/01/17 11:37:34;;;;;;;0.50;0.50;;;;;;;;;;4952329;28;20070;-87
2024/01/17 11:40:04;;;;;;;0.40;0.40;;;;;;;;;;4955913;28;20042;-87
2024/01/17 11:42:30;;;;;;;0.50;0.50;;;;;;;;;;4968974;28;20044;-86
2024/01/17 11:44:56;;;;;;;0.50;0.50;;;;;;;;;;4955346;28;20062;-86
2024/01/17 11:47:22;;;;;;;0.88;0.88;;;;;;;;;;4945490;28;20508;-87
2024/01/17 11:49:49;;;;;;;0.50;0.50;;;;;;;;;;4954854;28;20047;-87
2024/01/17 11:52:28;;;;;;;0.50;0.50;;;;;;;;;;4973558;28;20395;-86
2024/01/17 11:54:54;;;;;;;0.50;0.50;;;;;;;;;;4954641;28;20412;-87
2024/01/17 11:57:20;;;;;;;0.50;0.50;;;;;;;;;;4951937;28;20521;-86
2024/01/17 12:00:04;;;;;;;0.70;0.70;;;;;;;;;;4957683;28;20038;-87
2024/01/17 12:02:48;;;;;;;0.45;0.45;;;;;;;;;;4955641;28;20409;-87
2024/01/17 12:05:14;;;;;;;0.57;0.57;;;;;;;;;;4955012;28;20038;-87
2024/01/17 12:07:42;;;;;;;0.60;0.60;;;;;;;;;;4967325;28;20051;-87
2024/01/17 12:10:09;;;;;;;0.60;0.60;;;;;;;;;;4944409;28;20047;-88
2024/01/17 12:12:35;;;;;;;0.60;0.60;;;;;;;;;;4943938;28;20038;-86
2024/01/17 12:15:02;;;;;;;0.50;0.50;;;;;;;;;;4945841;28;20035;-84
2024/01/17 12:17:28;;;;;;;0.55;0.55;;;;;;;;;;4950488;28;20114;-84
2024/01/17 12:19:54;;;;;;;0.50;0.50;;;;;;;;;;4948468;28;20469;-86
2024/01/17 12:22:20;;;;;;;0.60;0.60;;;;;;;;;;4951805;28;20039;-89
2024/01/17 12:24:46;;;;;;;0.50;0.50;;;;;;;;;;4956411;28;20072;-89
2024/01/17 12:27:12;;;;;;;0.52;0.52;;;;;;;;;;4945983;28;20042;-89
2024/01/17 12:29:38;;;;;;;0.60;0.60;;;;;;;;;;4948720;28;20050;-88
2024/01/17 12:32:04;;;;;;;0.50;0.50;;;;;;;;;;4968622;28;20444;-87
2024/01/17 12:34:30;;;;;;;0.50;0.50;;;;;;;;;;4948514;28;20457;-87
2024/01/17 12:36:56;;;;;;;0.50;0.50;;;;;;;;;;4949220;28;20038;-87
2024/01/17 12:39:22;;;;;;;0.50;0.50;;;;;;;;;;4947271;28;20043;-87
2024/01/17 12:41:54;;;;;;;0.47;0.47;;;;;;;;;;4947483;28;20465;-87
2024/01/17 12:44:20;;;;;;;0.60;0.60;;;;;;;;;;4947156;28;20085;-87
2024/01/17 12:46:46;;;;;;;0.50;0.50;;;;;;;;;;4948171;28;20044;-87
2024/01/17 12:49:14;;;;;;;0.50;0.50;;;;;;;;;;4950499;28;20039;-87
2024/01/17 12:51:40;;;;;;;0.50;0.50;;;;;;;;;;4944899;28;20180;-88
2024/01/17 12:54:07;;;;;;;0.50;0.50;;;;;;;;;;4949805;28;20039;-88
2024/01/17 12:56:33;;;;;;;0.50;0.50;;;;;;;;;;4950217;28;20039;-88
2024/01/17 12:58:59;;;;;;;0.60;0.60;;;;;;;;;;4951684;28;20047;-88
2024/01/17 13:01:26;;;;;;;0.57;0.57;;;;;;;;;;4955236;28;20046;-88
2024/01/17 13:04:03;;;;;;;0.50;0.50;;;;;;;;;;4949324;28;20058;-86
2024/01/17 13:06:29;;;;;;;0.50;0.50;;;;;;;;;;4950926;28;20098;-87
2024/01/17 13:08:57;;;;;;;0.50;0.50;;;;;;;;;;4964890;28;20047;-87
2024/01/17 13:11:24;;;;;;;0.70;0.70;;;;;;;;;;4950445;28;20039;-87
2024/01/17 13:13:58;;;;;;;0.55;0.55;;;;;;;;;;4964085;28;20043;-89
2024/01/17 13:16:29;;;;;;;0.50;0.50;;;;;;;;;;4960859;28;20712;-91
2024/01/17 13:18:58;;;;;;;0.50;0.50;;;;;;;;;;4946282;28;20042;-87
2024/01/17 13:21:24;;;;;;;0.50;0.50;;;;;;;;;;4962925;28;20128;-87
2024/01/17 13:23:50;;;;;;;0.50;0.50;;;;;;;;;;4947350;28;20206;-87
2024/01/17 13:26:17;;;;;;;0.50;0.50;;;;;;;;;;4950938;28;20039;-87
2024/01/17 13:28:43;;;;;;;0.50;0.50;;;;;;;;;;4947354;28;20044;-87
2024/01/17 13:31:09;;;;;;;0.60;0.60;;;;;;;;;;4950660;28;20047;-87
2024/01/17 13:33:35;;;;;;;0.60;0.60;;;;;;;;;;4947102;28;20046;-86
2024/01/17 13:36:01;;;;;;;0.60;0.60;;;;;;;;;;4948496;28;20035;-85
2024/01/17 13:38:28;;;;;;;0.50;0.50;;;;;;;;;;4950528;28;20378;-89
2024/01/17 13:40:54;;;;;;;0.50;0.50;;;;;;;;;;4967244;28;20043;-87
2024/01/17 13:43:20;;;;;;;0.50;0.50;;;;;;;;;;4947715;28;20043;-82
2024/01/17 13:45:46;;;;;;;0.50;0.50;;;;;;;;;;4953366;28;20045;-82
2024/01/17 13:48:12;;;;;;;0.60;0.60;;;;;;;;;;4965687;28;20118;-82
2024/01/17 13:50:38;;;;;;;0.60;0.60;;;;;;;;;;4966700;28;21496;-82
2024/01/17 13:53:17;;;;;;;0.50;0.50;;;;;;;;;;4953271;28;20046;-82
2024/01/17 13:55:43;;;;;;;0.50;0.50;;;;;;;;;;4948338;28;20070;-82
2024/01/17 13:58:09;;;;;;;0.50;0.50;;;;;;;;;;4948525;28;20506;-82
2024/01/17 14:00:38;;;;;;;0.50;0.50;;;;;;;;;;4948131;28;20046;-82
2024/01/17 14:03:04;;;;;;;0.60;0.60;;;;;;;;;;4943875;28;20497;-84
2024/01/17 14:05:30;;;;;;;0.60;0.60;;;;;;;;;;4950031;28;20039;-83
2024/01/17 14:07:58;;;;;;;0.50;0.50;;;;;;;;;;4949036;28;20468;-82
2024/01/17 14:10:24;;;;;;;0.60;0.60;;;;;;;;;;4948839;28;20085;-82
2024/01/17 14:12:51;;;;;;;0.60;0.60;;;;;;;;;;4944869;28;20042;-82
2024/01/17 14:15:19;;;;;;;0.50;0.50;;;;;;;;;;4951797;28;20047;-83
2024/01/17 14:17:45;;;;;;;0.50;0.50;;;;;;;;;;4948909;28;20510;-83
2024/01/17 14:20:19;;;;;;;0.60;0.60;;;;;;;;;;4948491;28;20166;-83
2024/01/17 14:22:46;;;;;;;0.55;0.55;;;;;;;;;;4945875;28;20130;-83
2024/01/17 14:25:14;;;;;;;0.60;0.60;;;;;;;;;;4946196;29;20039;-83
2024/01/17 14:27:40;;;;;;;0.50;0.50;;;;;;;;;;4965217;28;20608;-83
2024/01/17 14:30:07;;;;;;;0.50;0.50;;;;;;;;;;4946863;28;20050;-83
2024/01/17 14:32:33;;;;;;;0.60;0.60;;;;;;;;;;4961232;28;20047;-83
2024/01/17 14:34:59;;;;;;;0.60;0.60;;;;;;;;;;4947710;28;20102;-83
2024/01/17 14:37:26;;;;;;;0.50;0.50;;;;;;;;;;4946607;28;20511;-83
2024/01/17 14:39:52;;;;;;;0.57;0.57;;;;;;;;;;4945014;28;20050;-84